createdAt,value
2023-05-09T00:01:12.422Z,100412.00
2023-05-09T00:03:45.379Z,100388.00
2023-05-09T00:06:18.343Z,100404.00
2023-05-09T00:08:51.300Z,100462.00
2023-05-09T00:11:26.512Z,100476.00
2023-05-09T00:14:17.158Z,100463.00
2023-05-09T00:16:34.436Z,100467.00
2023-05-09T00:19:07.431Z,100475.00
2023-05-09T00:21:40.319Z,100418.00
2023-05-09T00:24:13.450Z,100381.00
2023-05-09T00:26:46.522Z,100351.00
2023-05-09T00:29:19.202Z,100335.00
2023-05-09T00:31:52.358Z,100384.00
2023-05-09T00:34:25.364Z,100387.00
2023-05-09T00:36:58.188Z,100354.00
2023-05-09T00:39:31.359Z,100331.00
2023-05-09T00:42:05.527Z,100305.00
2023-05-09T00:44:38.366Z,100286.00
2023-05-09T00:47:11.834Z,100303.00
2023-05-09T00:49:44.788Z,100294.00
2023-05-09T00:52:17.925Z,100288.00
2023-05-09T00:54:50.719Z,100296.00
2023-05-09T00:57:24.267Z,100301.00
2023-05-09T00:59:57.230Z,100313.00
2023-05-09T01:02:30.657Z,100287.00
2023-05-09T01:05:03.800Z,100267.00
2023-05-09T01:07:51.005Z,100277.00
2023-05-09T01:10:28.511Z,100267.00
2023-05-09T01:13:18.619Z,100252.00
2023-05-09T01:15:59.094Z,100257.00
2023-05-09T01:18:34.123Z,100260.00
2023-05-09T01:21:12.373Z,100250.00
2023-05-09T01:23:53.814Z,100240.00
2023-05-09T01:26:45.126Z,100238.00
2023-05-09T01:29:39.880Z,100228.00
2023-05-09T01:32:21.271Z,100205.00
2023-05-09T01:34:55.944Z,100205.00
2023-05-09T01:37:33.917Z,100208.00
2023-05-09T01:40:11.861Z,100223.00
2023-05-09T01:42:55.397Z,100218.00
2023-05-09T01:45:29.441Z,100201.00
2023-05-09T01:48:04.163Z,100176.00
2023-05-09T01:50:38.867Z,100182.00
2023-05-09T01:53:12.414Z,100168.00
2023-05-09T01:55:46.493Z,100152.00
2023-05-09T01:58:25.764Z,100145.00
2023-05-09T02:00:59.371Z,100145.00
2023-05-09T02:03:32.560Z,100142.00
2023-05-09T02:06:06.575Z,100123.00
2023-05-09T02:08:39.617Z,100113.00
2023-05-09T02:11:12.326Z,100104.00
2023-05-09T02:13:45.416Z,100092.00
2023-05-09T02:16:20.628Z,100100.00
2023-05-09T02:18:54.223Z,100086.00
2023-05-09T02:21:29.052Z,100079.00
2023-05-09T02:24:03.779Z,100082.00
2023-05-09T02:26:39.364Z,100087.00
2023-05-09T02:29:13.907Z,100076.00
2023-05-09T02:31:48.793Z,100065.00
2023-05-09T02:34:22.302Z,100054.00
2023-05-09T02:36:55.176Z,100042.00
2023-05-09T02:39:28.302Z,100048.00
2023-05-09T02:42:02.723Z,100043.00
2023-05-09T02:44:35.607Z,100044.00
2023-05-09T02:47:09.787Z,100044.00
2023-05-09T02:49:42.607Z,100033.00
2023-05-09T02:52:15.785Z,100037.00
2023-05-09T02:54:49.713Z,100038.00
2023-05-09T02:57:23.069Z,100030.00
2023-05-09T02:59:56.003Z,100037.00
2023-05-09T03:02:29.514Z,100040.00
2023-05-09T03:05:02.493Z,100061.00
2023-05-09T03:07:59.085Z,100057.00
2023-05-09T03:10:31.989Z,100068.00
2023-05-09T03:13:05.280Z,100067.00
2023-05-09T03:15:38.263Z,100070.00
2023-05-09T03:18:11.387Z,100054.00
2023-05-09T03:20:44.459Z,100077.00
2023-05-09T03:23:17.414Z,100082.00
2023-05-09T03:25:50.579Z,100076.00
2023-05-09T03:28:25.070Z,100080.00
2023-05-09T03:30:58.062Z,100078.00
2023-05-09T03:33:35.686Z,100082.00
2023-05-09T03:36:08.691Z,100079.00
2023-05-09T03:38:41.781Z,100065.00
2023-05-09T03:41:14.393Z,100069.00
2023-05-09T03:43:47.176Z,100076.00
2023-05-09T03:46:20.010Z,100058.00
2023-05-09T03:48:57.055Z,100074.00
2023-05-09T03:51:30.078Z,100061.00
2023-05-09T03:54:02.952Z,100044.00
2023-05-09T03:56:35.916Z,100023.00
2023-05-09T03:59:09.060Z,100025.00
2023-05-09T04:01:42.864Z,100013.00
2023-05-09T04:04:17.087Z,100019.00
2023-05-09T04:06:50.057Z,100037.00
2023-05-09T04:09:23.292Z,100020.00
2023-05-09T04:11:56.070Z,100009.00
2023-05-09T04:14:29.891Z,100003.00
2023-05-09T04:17:05.416Z,100003.00
2023-05-09T04:19:38.360Z,99999.00
2023-05-09T04:22:11.365Z,100025.00
2023-05-09T04:24:44.265Z,100015.00
2023-05-09T04:27:17.494Z,100010.00
2023-05-09T04:29:51.116Z,100015.00
2023-05-09T04:32:24.514Z,100018.00
2023-05-09T04:34:57.415Z,100006.00
2023-05-09T04:37:30.476Z,100028.00
2023-05-09T04:40:03.620Z,100035.00
2023-05-09T04:42:36.965Z,100026.00
2023-05-09T04:45:14.778Z,100035.00
2023-05-09T04:47:47.854Z,100025.00
2023-05-09T04:50:20.689Z,100027.00
2023-05-09T04:52:54.843Z,100026.00
2023-05-09T04:55:28.100Z,100018.00
2023-05-09T04:58:00.776Z,100006.00
2023-05-09T05:00:33.911Z,99993.00
2023-05-09T05:03:07.201Z,99987.00
2023-05-09T05:05:39.887Z,99980.00
2023-05-09T05:08:12.666Z,99979.00
2023-05-09T05:10:45.861Z,99953.00
2023-05-09T05:13:18.872Z,99934.00
2023-05-09T05:15:52.037Z,99920.00
2023-05-09T05:18:24.713Z,99910.00
2023-05-09T05:20:57.638Z,99905.00
2023-05-09T05:23:30.539Z,99898.00
2023-05-09T05:26:03.110Z,99861.00
2023-05-09T05:28:35.934Z,99871.00
2023-05-09T05:31:08.892Z,99880.00
2023-05-09T05:33:41.750Z,99895.00
2023-05-09T05:36:15.075Z,99891.00
2023-05-09T05:38:47.971Z,99910.00
2023-05-09T05:41:20.824Z,99893.00
2023-05-09T05:43:54.531Z,99921.00
2023-05-09T05:46:27.516Z,99899.00
2023-05-09T05:49:00.182Z,99909.00
2023-05-09T05:51:33.632Z,99900.00
2023-05-09T05:54:06.533Z,99909.00
2023-05-09T05:56:39.456Z,99899.00
2023-05-09T05:59:13.497Z,99874.00
2023-05-09T06:01:47.182Z,99864.00
2023-05-09T06:04:20.599Z,99853.00
2023-05-09T06:06:54.300Z,99824.00
2023-05-09T06:09:27.263Z,99818.00
2023-05-09T06:12:00.149Z,99822.00
2023-05-09T06:14:32.886Z,99837.00
2023-05-09T06:17:08.407Z,99855.00
2023-05-09T06:19:41.961Z,99857.00
2023-05-09T06:22:14.479Z,99843.00
2023-05-09T06:24:51.965Z,99855.00
2023-05-09T06:27:24.896Z,99865.00
2023-05-09T06:29:57.806Z,99841.00
2023-05-09T06:32:30.728Z,99842.00
2023-05-09T06:35:03.624Z,99830.00
2023-05-09T06:37:37.918Z,99835.00
2023-05-09T06:40:11.722Z,99830.00
2023-05-09T06:42:44.580Z,99824.00
2023-05-09T06:45:17.977Z,99817.00
2023-05-09T06:47:51.067Z,99793.00
2023-05-09T06:50:23.973Z,99795.00
2023-05-09T06:52:56.948Z,99776.00
2023-05-09T06:55:32.833Z,99763.00
2023-05-09T06:58:06.316Z,99746.00
2023-05-09T07:00:45.769Z,99763.00
2023-05-09T07:03:18.952Z,99751.00
2023-05-09T07:05:52.269Z,99741.00
2023-05-09T07:08:25.246Z,99752.00
2023-05-09T07:10:58.077Z,99734.00
2023-05-09T07:13:31.244Z,99735.00
2023-05-09T07:16:04.249Z,99748.00
2023-05-09T07:18:37.226Z,99748.00
2023-05-09T07:21:10.184Z,99748.00
2023-05-09T07:23:43.229Z,99733.00
2023-05-09T07:26:16.318Z,99731.00
2023-05-09T07:28:49.487Z,99745.00
2023-05-09T07:31:23.034Z,99743.00
2023-05-09T07:33:55.810Z,99750.00
2023-05-09T07:36:29.052Z,99740.00
2023-05-09T07:39:01.903Z,99742.00
2023-05-09T07:41:35.034Z,99754.00
2023-05-09T07:44:07.899Z,99755.00
2023-05-09T07:46:42.253Z,99751.00
2023-05-09T07:49:15.382Z,99766.00
2023-05-09T07:51:48.282Z,99759.00
2023-05-09T07:54:21.248Z,99760.00
2023-05-09T07:56:53.987Z,99744.00
2023-05-09T07:59:26.878Z,99732.00
2023-05-09T08:01:59.840Z,99733.00
2023-05-09T08:04:32.781Z,99723.00
2023-05-09T08:07:05.976Z,99717.00
2023-05-09T08:09:39.789Z,99708.00
2023-05-09T08:12:13.192Z,99702.00
2023-05-09T08:14:46.026Z,99706.00
2023-05-09T08:17:18.745Z,99683.00
2023-05-09T08:19:51.516Z,99675.00
2023-05-09T08:22:27.945Z,99662.00
2023-05-09T08:25:00.576Z,99659.00
2023-05-09T08:27:33.871Z,99655.00
2023-05-09T08:30:06.783Z,99652.00
2023-05-09T08:32:39.850Z,99645.00
2023-05-09T08:35:13.176Z,99642.00
2023-05-09T08:37:46.405Z,99642.00
2023-05-09T08:40:19.426Z,99641.00
2023-05-09T08:42:53.225Z,99644.00
2023-05-09T08:45:27.773Z,99648.00
2023-05-09T08:48:01.051Z,99644.00
2023-05-09T08:50:34.026Z,99649.00
2023-05-09T08:53:06.826Z,99643.00
2023-05-09T08:55:39.909Z,99641.00
2023-05-09T08:58:16.902Z,99636.00
2023-05-09T09:00:50.435Z,99628.00
2023-05-09T09:03:23.602Z,99617.00
2023-05-09T09:05:58.114Z,99603.00
2023-05-09T09:08:31.106Z,99602.00
2023-05-09T09:11:04.789Z,99603.00
2023-05-09T09:13:39.587Z,99597.00
2023-05-09T09:16:17.540Z,99582.00
2023-05-09T09:18:51.125Z,99575.00
2023-05-09T09:21:25.543Z,99568.00
2023-05-09T09:23:59.344Z,99555.00
2023-05-09T09:26:33.547Z,99560.00
2023-05-09T09:29:06.597Z,99547.00
2023-05-09T09:31:39.376Z,99541.00
2023-05-09T09:34:12.056Z,99543.00
2023-05-09T09:36:45.018Z,99541.00
2023-05-09T09:39:18.215Z,99536.00
2023-05-09T09:41:51.378Z,99541.00
2023-05-09T09:44:25.486Z,99533.00
2023-05-09T09:46:58.825Z,99518.00
2023-05-09T09:49:32.595Z,99532.00
2023-05-09T09:52:05.330Z,99521.00
2023-05-09T09:54:38.473Z,99512.00
2023-05-09T09:57:11.489Z,99529.00
2023-05-09T09:59:44.543Z,99515.00
2023-05-09T10:02:20.086Z,99518.00
2023-05-09T10:04:53.585Z,99512.00
2023-05-09T10:07:27.632Z,99490.00
2023-05-09T10:10:00.675Z,99485.00
2023-05-09T10:12:35.189Z,99471.00
2023-05-09T10:15:14.604Z,99468.00
2023-05-09T10:17:47.863Z,99454.00
2023-05-09T10:20:22.198Z,99446.00
2023-05-09T10:22:59.712Z,99438.00
2023-05-09T10:25:37.756Z,99449.00
2023-05-09T10:28:18.595Z,99442.00
2023-05-09T10:31:18.607Z,99438.00
2023-05-09T10:33:55.514Z,99450.00
2023-05-09T10:36:28.416Z,99445.00
2023-05-09T10:39:01.675Z,99442.00
2023-05-09T10:41:34.361Z,99425.00
2023-05-09T10:44:06.978Z,99426.00
2023-05-09T10:46:40.896Z,99423.00
2023-05-09T10:49:14.322Z,99414.00
2023-05-09T10:51:47.829Z,99412.00
2023-05-09T10:54:31.345Z,99398.00
2023-05-09T10:57:05.430Z,99392.00
2023-05-09T10:59:42.966Z,99394.00
2023-05-09T11:02:20.856Z,99387.00
2023-05-09T11:05:00.717Z,99389.00
2023-05-09T11:07:34.293Z,99399.00
2023-05-09T11:10:15.283Z,99389.00
2023-05-09T11:13:04.200Z,99397.00
2023-05-09T11:15:37.254Z,99405.00
2023-05-09T11:18:11.667Z,99399.00
2023-05-09T11:20:48.814Z,99400.00
2023-05-09T11:23:22.552Z,99393.00
2023-05-09T11:25:55.357Z,99400.00
2023-05-09T11:28:32.808Z,99390.00
2023-05-09T11:31:19.114Z,99400.00
2023-05-09T11:33:54.773Z,99401.00
2023-05-09T11:36:30.573Z,99404.00
2023-05-09T11:39:14.133Z,99393.00
2023-05-09T11:41:48.886Z,99400.00
2023-05-09T11:44:25.625Z,99403.00
2023-05-09T11:46:58.658Z,99407.00
2023-05-09T11:49:32.771Z,99395.00
2023-05-09T11:52:05.787Z,99383.00
2023-05-09T11:54:40.231Z,99391.00
2023-05-09T11:57:13.640Z,99386.00
2023-05-09T11:59:50.787Z,99389.00
2023-05-09T12:02:24.821Z,99386.00
2023-05-09T12:04:57.795Z,99386.00
2023-05-09T12:07:31.308Z,99380.00
2023-05-09T12:10:05.773Z,99377.00
2023-05-09T12:12:39.801Z,99374.00
2023-05-09T12:15:15.383Z,99373.00
2023-05-09T12:17:51.337Z,99364.00
2023-05-09T12:20:23.176Z,99371.00
2023-05-09T12:22:57.161Z,99366.00
2023-05-09T12:25:30.445Z,99363.00
2023-05-09T12:28:03.249Z,99358.00
2023-05-09T12:30:36.849Z,99358.00
2023-05-09T12:33:11.659Z,99362.00
2023-05-09T12:35:46.746Z,99361.00
2023-05-09T12:38:26.344Z,99356.00
2023-05-09T12:41:31.001Z,99362.00
2023-05-09T12:43:48.235Z,99359.00
2023-05-09T12:46:27.885Z,99354.00
2023-05-09T12:49:00.749Z,99358.00
2023-05-09T12:51:33.597Z,99367.00
2023-05-09T12:54:08.145Z,99370.00
2023-05-09T12:56:41.139Z,99360.00
2023-05-09T12:59:15.976Z,99362.00
2023-05-09T13:01:48.884Z,99360.00
2023-05-09T13:04:27.061Z,99355.00
2023-05-09T13:07:01.747Z,99357.00
2023-05-09T13:09:35.912Z,99357.00
2023-05-09T13:12:09.997Z,99359.00
2023-05-09T13:14:43.184Z,99350.00
2023-05-09T13:17:16.143Z,99346.00
2023-05-09T13:19:49.100Z,99360.00
2023-05-09T13:22:21.865Z,99349.00
2023-05-09T13:24:54.577Z,99344.00
2023-05-09T13:27:27.576Z,99349.00
2023-05-09T13:30:00.472Z,99339.00
2023-05-09T13:32:33.446Z,99344.00
2023-05-09T13:35:07.465Z,99334.00
2023-05-09T13:37:40.601Z,99340.00
2023-05-09T13:40:14.817Z,99326.00
2023-05-09T13:42:48.428Z,99328.00
2023-05-09T13:45:21.368Z,99325.00
2023-05-09T13:47:54.447Z,99310.00
2023-05-09T13:50:27.332Z,99319.00
2023-05-09T13:53:00.542Z,99313.00
2023-05-09T13:55:33.374Z,99306.00
2023-05-09T13:58:06.144Z,99306.00
2023-05-09T14:00:39.137Z,99292.00
2023-05-09T14:03:12.065Z,99287.00
2023-05-09T14:05:44.908Z,99288.00
2023-05-09T14:08:17.680Z,99276.00
2023-05-09T14:10:51.045Z,99271.00
2023-05-09T14:13:24.146Z,99274.00
2023-05-09T14:15:57.221Z,99271.00
2023-05-09T14:18:30.125Z,99264.00
2023-05-09T14:21:03.064Z,99266.00
2023-05-09T14:23:35.724Z,99265.00
2023-05-09T14:26:08.714Z,99263.00
2023-05-09T14:28:41.517Z,99257.00
2023-05-09T14:31:15.237Z,99262.00
2023-05-09T14:33:48.186Z,99261.00
2023-05-09T14:36:21.173Z,99245.00
2023-05-09T14:38:53.944Z,99242.00
2023-05-09T14:41:27.105Z,99250.00
2023-05-09T14:43:59.919Z,99247.00
2023-05-09T14:46:32.871Z,99233.00
2023-05-09T14:49:06.203Z,99235.00
2023-05-09T14:51:39.636Z,99225.00
2023-05-09T14:54:12.589Z,99218.00
2023-05-09T14:56:45.514Z,99215.00
2023-05-09T14:59:18.334Z,99209.00
2023-05-09T15:01:52.865Z,99219.00
2023-05-09T15:04:27.003Z,99208.00
2023-05-09T15:07:00.770Z,99206.00
2023-05-09T15:09:33.774Z,99200.00
2023-05-09T15:12:07.419Z,99204.00
2023-05-09T15:14:41.332Z,99202.00
2023-05-09T15:17:14.333Z,99199.00
2023-05-09T15:19:47.003Z,99196.00
2023-05-09T15:22:19.755Z,99203.00
2023-05-09T15:24:52.618Z,99197.00
2023-05-09T15:27:26.310Z,99186.00
2023-05-09T15:29:59.462Z,99178.00
2023-05-09T15:32:32.277Z,99163.00
2023-05-09T15:35:05.183Z,99162.00
2023-05-09T15:37:38.243Z,99154.00
2023-05-09T15:40:11.981Z,99150.00
2023-05-09T15:42:44.797Z,99148.00
2023-05-09T15:45:17.598Z,99131.00
2023-05-09T15:47:50.469Z,99143.00
2023-05-09T15:50:23.409Z,99138.00
2023-05-09T15:52:56.095Z,99137.00
2023-05-09T15:55:29.091Z,99127.00
2023-05-09T15:58:04.215Z,99117.00
2023-05-09T16:00:36.913Z,99104.00
2023-05-09T16:03:09.838Z,99105.00
2023-05-09T16:05:45.749Z,99119.00
2023-05-09T16:08:18.891Z,99113.00
2023-05-09T16:10:51.842Z,99100.00
2023-05-09T16:13:25.430Z,99083.00
2023-05-09T16:15:58.628Z,99082.00
2023-05-09T16:18:35.261Z,99083.00
2023-05-09T16:21:08.622Z,99082.00
2023-05-09T16:23:45.102Z,99085.00
2023-05-09T16:26:17.943Z,99068.00
2023-05-09T16:28:51.715Z,99062.00
2023-05-09T16:31:26.281Z,99064.00
2023-05-09T16:33:59.150Z,99061.00
2023-05-09T16:36:32.286Z,99055.00
2023-05-09T16:39:05.215Z,99056.00
2023-05-09T16:41:38.094Z,99057.00
2023-05-09T16:44:10.896Z,99044.00
2023-05-09T16:46:44.066Z,99043.00
2023-05-09T16:49:20.551Z,99040.00
2023-05-09T16:51:57.701Z,99039.00
2023-05-09T16:54:30.894Z,99032.00
2023-05-09T16:57:03.776Z,99041.00
2023-05-09T16:59:36.675Z,99035.00
2023-05-09T17:02:09.736Z,99040.00
2023-05-09T17:04:42.783Z,99036.00
2023-05-09T17:07:16.345Z,99037.00
2023-05-09T17:09:50.425Z,99035.00
2023-05-09T17:12:23.961Z,99026.00
2023-05-09T17:14:57.170Z,99038.00
2023-05-09T17:17:30.363Z,99026.00
2023-05-09T17:20:03.378Z,99031.00
2023-05-09T17:22:37.133Z,99032.00
2023-05-09T17:25:10.866Z,99036.00
2023-05-09T17:27:44.510Z,99029.00
2023-05-09T17:30:19.394Z,99029.00
2023-05-09T17:32:52.013Z,99032.00
2023-05-09T17:35:25.042Z,99040.00
2023-05-09T17:37:57.930Z,99042.00
2023-05-09T17:40:31.006Z,99043.00
2023-05-09T17:43:03.939Z,99036.00
2023-05-09T17:45:36.859Z,99040.00
2023-05-09T17:48:10.287Z,99038.00
2023-05-09T17:50:43.450Z,99029.00
2023-05-09T17:53:16.406Z,99027.00
2023-05-09T17:55:49.331Z,99034.00
2023-05-09T17:58:22.963Z,99039.00
2023-05-09T18:00:57.024Z,99030.00
2023-05-09T18:03:30.985Z,99031.00
2023-05-09T18:06:03.968Z,99016.00
2023-05-09T18:08:36.864Z,99020.00
2023-05-09T18:11:09.734Z,99023.00
2023-05-09T18:13:42.801Z,99010.00
2023-05-09T18:16:18.334Z,99010.00
2023-05-09T18:18:51.133Z,99005.00
2023-05-09T18:21:24.084Z,99004.00
2023-05-09T18:23:57.751Z,99002.00
2023-05-09T18:26:31.102Z,99012.00
2023-05-09T18:29:04.069Z,99002.00
2023-05-09T18:31:38.264Z,99000.00
2023-05-09T18:34:11.236Z,98998.00
2023-05-09T18:36:48.278Z,98988.00
2023-05-09T18:39:21.601Z,98989.00
2023-05-09T18:41:54.821Z,98989.00
2023-05-09T18:44:27.892Z,98983.00
2023-05-09T18:47:00.665Z,98985.00
2023-05-09T18:49:33.408Z,98986.00
2023-05-09T18:52:06.272Z,98986.00
2023-05-09T18:54:40.035Z,98987.00
2023-05-09T18:57:12.886Z,98977.00
2023-05-09T18:59:45.785Z,98973.00
2023-05-09T19:02:18.840Z,98968.00
2023-05-09T19:04:52.869Z,98961.00
2023-05-09T19:07:25.806Z,98969.00
2023-05-09T19:09:58.801Z,98965.00
2023-05-09T19:12:31.839Z,98967.00
2023-05-09T19:15:04.952Z,98952.00
2023-05-09T19:17:37.966Z,98945.00
2023-05-09T19:20:12.046Z,98939.00
2023-05-09T19:22:46.245Z,98957.00
2023-05-09T19:25:19.462Z,98952.00
2023-05-09T19:27:53.116Z,98935.00
2023-05-09T19:30:26.273Z,98946.00
2023-05-09T19:32:59.382Z,98941.00
2023-05-09T19:35:32.474Z,98939.00
2023-05-09T19:38:05.470Z,98938.00
2023-05-09T19:40:38.386Z,98940.00
2023-05-09T19:43:11.452Z,98941.00
2023-05-09T19:45:44.512Z,98960.00
2023-05-09T19:48:20.791Z,98971.00
2023-05-09T19:50:53.818Z,98994.00
2023-05-09T19:53:27.090Z,99002.00
2023-05-09T19:56:00.259Z,99022.00
2023-05-09T19:58:33.183Z,99017.00
2023-05-09T20:01:33.138Z,99020.00
2023-05-09T20:06:43.354Z,99016.00
2023-05-09T20:09:17.384Z,99007.00
2023-05-09T20:11:52.720Z,99005.00
2023-05-09T20:14:25.480Z,99005.00
2023-05-09T20:16:58.947Z,99016.00
2023-05-09T20:19:32.280Z,99021.00
2023-05-09T20:22:05.603Z,99014.00
2023-05-09T20:24:42.575Z,99014.00
2023-05-09T20:27:15.528Z,99014.00
2023-05-09T20:29:48.506Z,99008.00
2023-05-09T20:32:21.585Z,99005.00
2023-05-09T20:34:54.580Z,99013.00
2023-05-09T20:37:32.507Z,99026.00
2023-05-09T20:40:08.136Z,99025.00
2023-05-09T20:42:41.862Z,99029.00
2023-05-09T20:45:15.433Z,99040.00
2023-05-09T20:47:48.498Z,99039.00
2023-05-09T20:50:21.304Z,99040.00
2023-05-09T20:52:54.267Z,99031.00
2023-05-09T20:55:27.140Z,99027.00
2023-05-09T20:57:59.952Z,99028.00
2023-05-09T21:00:32.764Z,99026.00
2023-05-09T21:03:06.103Z,99034.00
2023-05-09T21:05:39.374Z,99048.00
2023-05-09T21:08:12.394Z,99034.00
2023-05-09T21:10:45.371Z,99039.00
2023-05-09T21:13:18.244Z,99043.00
2023-05-09T21:15:55.353Z,99042.00
2023-05-09T21:18:29.292Z,99039.00
2023-05-09T21:21:03.357Z,99035.00
2023-05-09T21:23:36.310Z,99044.00
2023-05-09T21:26:09.192Z,99041.00
2023-05-09T21:28:42.009Z,99048.00
2023-05-09T21:31:14.784Z,99034.00
2023-05-09T21:33:47.699Z,99044.00
2023-05-09T21:36:20.711Z,99039.00
2023-05-09T21:38:53.644Z,99036.00
2023-05-09T21:41:26.432Z,99049.00
2023-05-09T21:43:59.189Z,99060.00
2023-05-09T21:46:31.934Z,99052.00
2023-05-09T21:49:05.327Z,99063.00
2023-05-09T21:51:38.233Z,99061.00
2023-05-09T21:54:11.199Z,99069.00
2023-05-09T21:56:44.437Z,99066.00
2023-05-09T21:59:19.835Z,99074.00
2023-05-09T22:01:52.797Z,99071.00
2023-05-09T22:04:25.790Z,99093.00
2023-05-09T22:06:58.862Z,99110.00
2023-05-09T22:09:31.697Z,99110.00
2023-05-09T22:12:04.529Z,99101.00
2023-05-09T22:14:45.106Z,99103.00
2023-05-09T22:17:11.533Z,99117.00
2023-05-09T22:19:45.183Z,99113.00
2023-05-09T22:22:18.129Z,99116.00
2023-05-09T22:24:51.648Z,99119.00
2023-05-09T22:27:24.597Z,99118.00
2023-05-09T22:29:57.454Z,99125.00
2023-05-09T22:32:30.464Z,99124.00
2023-05-09T22:35:03.380Z,99142.00
2023-05-09T22:37:36.363Z,99136.00
2023-05-09T22:40:10.137Z,99149.00
2023-05-09T22:42:42.837Z,99138.00
2023-05-09T22:45:16.121Z,99149.00
2023-05-09T22:47:49.262Z,99150.00
2023-05-09T22:50:22.093Z,99162.00
2023-05-09T22:52:54.992Z,99150.00
2023-05-09T22:55:29.050Z,99154.00
2023-05-09T22:58:01.871Z,99158.00
2023-05-09T23:00:34.626Z,99160.00
2023-05-09T23:03:07.548Z,99176.00
2023-05-09T23:05:41.053Z,99172.00
2023-05-09T23:08:14.024Z,99169.00
2023-05-09T23:10:47.253Z,99183.00
2023-05-09T23:13:20.091Z,99192.00
2023-05-09T23:15:53.784Z,99203.00
2023-05-09T23:18:29.135Z,99207.00
2023-05-09T23:21:02.046Z,99211.00
2023-05-09T23:23:34.907Z,99206.00
2023-05-09T23:26:07.803Z,99213.00
2023-05-09T23:28:40.572Z,99223.00
2023-05-09T23:31:13.787Z,99215.00
2023-05-09T23:33:46.587Z,99222.00
2023-05-09T23:36:19.401Z,99222.00
2023-05-09T23:38:52.389Z,99228.00
2023-05-09T23:41:25.645Z,99229.00
2023-05-09T23:44:00.028Z,99233.00
2023-05-09T23:46:32.991Z,99240.00
2023-05-09T23:49:06.232Z,99252.00
2023-05-09T23:51:39.128Z,99256.00
2023-05-09T23:54:12.098Z,99253.00
2023-05-09T23:56:44.933Z,99258.00
2023-05-09T23:59:17.925Z,99264.00
